Time;durP1;ratioP1;P1;durP2;ratioP2;P2;SDS_P1;SDS_P2;PMS_P1;PMS_P2;Temp;Humidity;BMP_temperature;BMP_pressure;BME280_temperature;BME280_humidity;BME280_pressure;Samples;Min_cycle;Max_cycle;Signal;HPM_P1;HPM_P2
2022/10/22 00:00:11;;;;;;;5.60;1.50;;;;;;;;;;4980723;28;20049;-77
2022/10/22 00:02:36;;;;;;;3.53;1.60;;;;;;;;;;4977426;28;20043;-77
2022/10/22 00:05:02;;;;;;;5.95;1.80;;;;;;;;;;4964103;28;20026;-77
2022/10/22 00:07:28;;;;;;;2.92;1.10;;;;;;;;;;4980285;28;20031;-78
2022/10/22 00:09:53;;;;;;;4.68;1.30;;;;;;;;;;4978584;28;20094;-79
2022/10/22 00:12:19;;;;;;;8.57;1.35;;;;;;;;;;4982254;28;20195;-80
2022/10/22 00:14:45;;;;;;;7.93;1.33;;;;;;;;;;4982194;28;20226;-80
2022/10/22 00:17:10;;;;;;;5.03;1.40;;;;;;;;;;4965210;28;20031;-78
2022/10/22 00:19:36;;;;;;;5.70;1.40;;;;;;;;;;4979751;28;20493;-77
2022/10/22 00:22:04;;;;;;;5.78;1.50;;;;;;;;;;4973066;28;20034;-77
2022/10/22 00:24:30;;;;;;;4.38;1.35;;;;;;;;;;4962249;28;20345;-77
2022/10/22 00:26:56;;;;;;;7.13;1.70;;;;;;;;;;4977654;28;20089;-78
2022/10/22 00:29:21;;;;;;;3.67;1.40;;;;;;;;;;4981450;28;20035;-77
2022/10/22 00:31:48;;;;;;;6.25;1.50;;;;;;;;;;4982043;28;20026;-77
2022/10/22 00:34:18;;;;;;;3.60;1.63;;;;;;;;;;4981816;28;20031;-76
2022/10/22 00:36:45;;;;;;;5.63;1.40;;;;;;;;;;4982019;28;20318;-76
2022/10/22 00:39:12;;;;;;;5.35;1.60;;;;;;;;;;4980376;28;20058;-77
2022/10/22 00:41:38;;;;;;;5.47;1.50;;;;;;;;;;4980770;28;20030;-76
2022/10/22 00:44:05;;;;;;;4.50;1.40;;;;;;;;;;4980603;28;20055;-76
2022/10/22 00:46:30;;;;;;;3.88;1.35;;;;;;;;;;4964631;28;20102;-76
2022/10/22 00:48:59;;;;;;;9.25;1.40;;;;;;;;;;4963790;28;20030;-76
2022/10/22 00:51:28;;;;;;;11.63;1.73;;;;;;;;;;4984311;28;20038;-76
2022/10/22 00:53:57;;;;;;;3.92;1.35;;;;;;;;;;4984210;28;20305;-76
2022/10/22 00:56:26;;;;;;;5.07;1.50;;;;;;;;;;4984351;28;20031;-76
2022/10/22 00:58:55;;;;;;;4.18;1.60;;;;;;;;;;4966397;28;20026;-76
2022/10/22 01:01:26;;;;;;;4.20;1.65;;;;;;;;;;4982849;28;20470;-76
2022/10/22 01:03:52;;;;;;;4.07;1.40;;;;;;;;;;4984671;28;20226;-76
2022/10/22 01:06:22;;;;;;;2.63;1.20;;;;;;;;;;4982760;28;20490;-76
2022/10/22 01:08:51;;;;;;;;;;;;;;;;;;4985026;28;20042;-75
2022/10/22 01:11:26;;;;;;;3.10;1.20;;;;;;;;;;4982876;28;19918;-75
2022/10/22 01:14:20;;;;;;;4.32;1.40;;;;;;;;;;4982969;28;20076;-75
2022/10/22 01:16:46;;;;;;;4.47;1.30;;;;;;;;;;4976218;28;20038;-76
2022/10/22 01:19:38;;;;;;;4.47;1.40;;;;;;;;;;4964572;28;20054;-76
2022/10/22 01:22:28;;;;;;;4.18;1.45;;;;;;;;;;4984482;28;20023;-76
2022/10/22 01:25:11;;;;;;;3.88;1.38;;;;;;;;;;4984348;28;20626;-76
2022/10/22 01:28:09;;;;;;;2.47;1.30;;;;;;;;;;4983475;28;20023;-76
2022/10/22 01:30:36;;;;;;;4.10;1.27;;;;;;;;;;4983825;28;20310;-75
2022/10/22 01:33:05;;;;;;;4.60;1.42;;;;;;;;;;4977340;28;20042;-75
2022/10/22 01:35:35;;;;;;;4.57;1.30;;;;;;;;;;4983839;28;20026;-75
2022/10/22 01:38:05;;;;;;;5.75;1.70;;;;;;;;;;4982556;28;20029;-75
2022/10/22 01:40:31;;;;;;;3.28;1.40;;;;;;;;;;4984160;28;20128;-76
2022/10/22 01:42:57;;;;;;;6.70;1.70;;;;;;;;;;4984075;28;20027;-76
2022/10/22 01:45:23;;;;;;;6.43;1.58;;;;;;;;;;4981724;28;20054;-77
2022/10/22 01:47:51;;;;;;;4.43;1.60;;;;;;;;;;4984137;28;20031;-76
2022/10/22 01:50:19;;;;;;;4.00;1.40;;;;;;;;;;4981561;28;20038;-76
2022/10/22 01:53:12;;;;;;;5.43;1.60;;;;;;;;;;4981209;28;20023;-76
2022/10/22 01:56:05;;;;;;;6.03;1.67;;;;;;;;;;4979468;28;20065;-76
2022/10/22 01:58:48;;;;;;;3.58;1.40;;;;;;;;;;4974367;28;20031;-77
2022/10/22 02:01:31;;;;;;;6.18;1.55;;;;;;;;;;4956238;28;20517;-76
2022/10/22 02:04:18;;;;;;;3.65;1.42;;;;;;;;;;4975656;28;20048;-77
2022/10/22 02:06:45;;;;;;;4.88;1.70;;;;;;;;;;4979557;28;20494;-77
2022/10/22 02:09:14;;;;;;;6.63;1.90;;;;;;;;;;4978067;28;20042;-77
2022/10/22 02:11:41;;;;;;;6.82;1.25;;;;;;;;;;4982621;28;20574;-75
2022/10/22 02:14:08;;;;;;;5.75;1.58;;;;;;;;;;4973399;28;20034;-76
2022/10/22 02:16:39;;;;;;;3.90;1.38;;;;;;;;;;4973487;28;20030;-75
2022/10/22 02:19:36;;;;;;;;;;;;;;;;;;4979369;28;20053;-76
2022/10/22 02:22:03;;;;;;;4.90;1.30;;;;;;;;;;4947725;28;19910;-75
2022/10/22 02:24:29;;;;;;;7.30;1.50;;;;;;;;;;4982285;28;20034;-77
2022/10/22 02:27:20;;;;;;;5.90;1.48;;;;;;;;;;4982672;28;20038;-77
2022/10/22 02:29:57;;;;;;;3.70;1.70;;;;;;;;;;4982899;28;20621;-77
2022/10/22 02:32:27;;;;;;;6.53;1.60;;;;;;;;;;4983493;28;20038;-77
2022/10/22 02:34:54;;;;;;;5.60;1.50;;;;;;;;;;4982660;28;20106;-78
2022/10/22 02:37:21;;;;;;;5.78;1.63;;;;;;;;;;4963335;28;20278;-77
2022/10/22 02:39:47;;;;;;;4.60;1.73;;;;;;;;;;4982953;28;20038;-77
2022/10/22 02:42:13;;;;;;;6.55;1.65;;;;;;;;;;4983118;28;20303;-76
2022/10/22 02:44:39;;;;;;;6.82;1.60;;;;;;;;;;4982410;28;20109;-76
2022/10/22 02:47:04;;;;;;;7.05;1.70;;;;;;;;;;4983215;28;20029;-76
2022/10/22 02:49:30;;;;;;;7.95;1.80;;;;;;;;;;4983354;28;20027;-76
2022/10/22 02:51:55;;;;;;;6.28;1.60;;;;;;;;;;4983780;28;20081;-77
2022/10/22 02:54:21;;;;;;;5.93;1.80;;;;;;;;;;4983041;28;20097;-77
2022/10/22 02:56:46;;;;;;;6.38;1.85;;;;;;;;;;4978716;28;20086;-77
2022/10/22 02:59:12;;;;;;;4.32;1.80;;;;;;;;;;4964641;28;20062;-77
2022/10/22 03:01:37;;;;;;;4.72;1.60;;;;;;;;;;4981100;28;20023;-78
2022/10/22 03:04:03;;;;;;;6.28;1.70;;;;;;;;;;4962265;28;20033;-78
2022/10/22 03:06:28;;;;;;;5.53;1.55;;;;;;;;;;4965658;28;20263;-77
2022/10/22 03:08:54;;;;;;;4.93;1.42;;;;;;;;;;4983152;28;20022;-78
2022/10/22 03:11:19;;;;;;;5.70;1.80;;;;;;;;;;4982489;28;20369;-77
2022/10/22 03:13:44;;;;;;;7.47;1.75;;;;;;;;;;4977994;28;20030;-76
2022/10/22 03:16:10;;;;;;;5.15;1.58;;;;;;;;;;4974401;28;20030;-77
2022/10/22 03:18:35;;;;;;;6.57;1.50;;;;;;;;;;4975215;28;20045;-76
2022/10/22 03:21:19;;;;;;;5.63;1.73;;;;;;;;;;4978164;28;20117;-75
2022/10/22 03:23:46;;;;;;;4.20;1.50;;;;;;;;;;4972323;28;20042;-77
2022/10/22 03:26:12;;;;;;;4.45;1.80;;;;;;;;;;4980235;28;20042;-76
2022/10/22 03:28:39;;;;;;;8.75;1.77;;;;;;;;;;4972967;28;20100;-76
2022/10/22 03:31:04;;;;;;;4.63;1.63;;;;;;;;;;4979021;28;20038;-76
2022/10/22 03:33:30;;;;;;;4.38;1.60;;;;;;;;;;4981502;28;20023;-76
2022/10/22 03:35:55;;;;;;;5.13;1.80;;;;;;;;;;4964623;28;20029;-75
2022/10/22 03:38:21;;;;;;;3.85;1.60;;;;;;;;;;4981267;28;20318;-76
2022/10/22 03:40:46;;;;;;;6.68;1.73;;;;;;;;;;4981580;28;20118;-76
2022/10/22 03:43:12;;;;;;;6.32;1.70;;;;;;;;;;4981517;28;20070;-76
2022/10/22 03:45:37;;;;;;;5.53;1.60;;;;;;;;;;4981891;28;20085;-76
2022/10/22 03:48:03;;;;;;;4.13;1.70;;;;;;;;;;4981999;28;20123;-76
2022/10/22 03:50:28;;;;;;;4.25;1.38;;;;;;;;;;4982104;28;20018;-76
2022/10/22 03:52:54;;;;;;;3.72;1.40;;;;;;;;;;4981981;28;20019;-75
2022/10/22 03:55:19;;;;;;;6.13;1.70;;;;;;;;;;4982042;28;20015;-76
2022/10/22 03:57:45;;;;;;;4.10;1.73;;;;;;;;;;4981139;28;20102;-76
2022/10/22 04:00:10;;;;;;;6.30;1.80;;;;;;;;;;4980837;28;20034;-76
2022/10/22 04:02:36;;;;;;;5.35;1.50;;;;;;;;;;4981837;28;20271;-76
2022/10/22 04:05:01;;;;;;;7.43;1.85;;;;;;;;;;4982200;28;20098;-75
2022/10/22 04:07:27;;;;;;;6.45;1.90;;;;;;;;;;4981068;28;20023;-77
2022/10/22 04:09:52;;;;;;;4.55;1.60;;;;;;;;;;4981360;28;20256;-76
2022/10/22 04:12:18;;;;;;;3.45;1.73;;;;;;;;;;4976552;28;20481;-76
2022/10/22 04:14:43;;;;;;;5.95;1.90;;;;;;;;;;4976645;28;20027;-75
2022/10/22 04:17:08;;;;;;;4.35;1.55;;;;;;;;;;4978811;28;20262;-76
2022/10/22 04:19:34;;;;;;;7.45;1.67;;;;;;;;;;4981007;28;20043;-76
2022/10/22 04:22:00;;;;;;;5.07;1.63;;;;;;;;;;4975573;28;20049;-76
2022/10/22 04:24:25;;;;;;;5.22;1.80;;;;;;;;;;4985356;28;20030;-76
2022/10/22 04:26:53;;;;;;;6.78;1.50;;;;;;;;;;4984842;28;20222;-77
2022/10/22 04:29:19;;;;;;;8.57;1.65;;;;;;;;;;4985954;28;20096;-75
2022/10/22 04:31:44;;;;;;;3.67;1.73;;;;;;;;;;4981357;28;20329;-75
2022/10/22 04:34:10;;;;;;;3.53;1.50;;;;;;;;;;4980344;28;20030;-76
2022/10/22 04:36:35;;;;;;;5.38;1.50;;;;;;;;;;4985993;28;20043;-76
2022/10/22 04:39:01;;;;;;;7.13;1.95;;;;;;;;;;4986089;28;20057;-75
2022/10/22 04:41:30;;;;;;;4.10;1.70;;;;;;;;;;4984732;28;20023;-75
2022/10/22 04:43:56;;;;;;;5.63;1.65;;;;;;;;;;4984520;28;20050;-76
2022/10/22 04:46:22;;;;;;;5.82;1.80;;;;;;;;;;4966020;28;20373;-76
2022/10/22 04:48:50;;;;;;;5.97;1.50;;;;;;;;;;4981979;28;20030;-75
2022/10/22 04:51:17;;;;;;;4.88;2.10;;;;;;;;;;4983118;28;20081;-76
2022/10/22 04:53:43;;;;;;;5.90;1.55;;;;;;;;;;4985124;28;20035;-75
2022/10/22 04:56:24;;;;;;;5.82;2.10;;;;;;;;;;4985775;28;20049;-76
2022/10/22 04:58:52;;;;;;;3.88;1.88;;;;;;;;;;4984816;28;20046;-75
2022/10/22 05:01:23;;;;;;;7.80;2.00;;;;;;;;;;4985357;28;20057;-76
2022/10/22 05:03:50;;;;;;;4.20;1.73;;;;;;;;;;4984113;28;20405;-76
2022/10/22 05:06:15;;;;;;;6.68;1.98;;;;;;;;;;4983492;28;20128;-76
2022/10/22 05:08:42;;;;;;;3.50;1.70;;;;;;;;;;4984418;28;20022;-75
2022/10/22 05:11:16;;;;;;;7.43;1.70;;;;;;;;;;4977992;28;20118;-77
2022/10/22 05:13:41;;;;;;;4.97;1.80;;;;;;;;;;4984048;28;20026;-76
2022/10/22 05:16:08;;;;;;;5.78;1.70;;;;;;;;;;4983976;28;20121;-76
2022/10/22 05:18:38;;;;;;;5.15;1.85;;;;;;;;;;4984670;28;20027;-76
2022/10/22 05:21:07;;;;;;;5.57;2.00;;;;;;;;;;4985306;28;20034;-77
2022/10/22 05:23:32;;;;;;;5.45;1.83;;;;;;;;;;4983886;28;20342;-76
2022/10/22 05:26:05;;;;;;;5.25;1.85;;;;;;;;;;4984369;28;20265;-76
2022/10/22 05:28:30;;;;;;;6.63;1.80;;;;;;;;;;4983710;28;20027;-76
2022/10/22 05:30:57;;;;;;;5.43;1.75;;;;;;;;;;4981723;28;20102;-76
2022/10/22 05:33:22;;;;;;;6.95;1.90;;;;;;;;;;4978726;28;20478;-76
2022/10/22 05:35:51;;;;;;;7.78;1.90;;;;;;;;;;4974100;28;20019;-77
2022/10/22 05:38:17;;;;;;;6.80;1.75;;;;;;;;;;4983293;28;20027;-77
2022/10/22 05:40:43;;;;;;;6.55;1.90;;;;;;;;;;4983748;28;20090;-75
2022/10/22 05:43:09;;;;;;;6.05;1.80;;;;;;;;;;4978475;28;20161;-77
2022/10/22 05:45:38;;;;;;;6.82;1.90;;;;;;;;;;4975972;28;20054;-77
2022/10/22 05:48:05;;;;;;;7.50;1.70;;;;;;;;;;4975690;28;20085;-77
2022/10/22 05:50:30;;;;;;;7.65;1.80;;;;;;;;;;4978882;28;20081;-78
2022/10/22 05:52:56;;;;;;;7.45;1.83;;;;;;;;;;4983020;28;20030;-78
2022/10/22 05:55:22;;;;;;;8.50;1.90;;;;;;;;;;4982542;28;20035;-78
2022/10/22 05:57:48;;;;;;;4.07;1.55;;;;;;;;;;4976525;28;20030;-78
2022/10/22 06:00:15;;;;;;;5.18;1.90;;;;;;;;;;4982311;28;20038;-76
2022/10/22 06:02:40;;;;;;;8.10;2.10;;;;;;;;;;4977519;28;20031;-76
2022/10/22 06:05:06;;;;;;;4.90;1.70;;;;;;;;;;4978718;28;20086;-75
2022/10/22 06:07:35;;;;;;;6.28;1.70;;;;;;;;;;4979975;28;20402;-75
2022/10/22 06:10:01;;;;;;;6.53;1.92;;;;;;;;;;4980198;28;20059;-76
2022/10/22 06:12:26;;;;;;;10.07;2.30;;;;;;;;;;4958745;28;20031;-78
2022/10/22 06:14:51;;;;;;;5.10;2.20;;;;;;;;;;4983406;28;20034;-75
2022/10/22 06:17:18;;;;;;;7.28;2.45;;;;;;;;;;4984441;28;20030;-77
2022/10/22 06:19:44;;;;;;;8.68;2.75;;;;;;;;;;4967146;28;20058;-77
2022/10/22 06:22:09;;;;;;;7.25;2.70;;;;;;;;;;4984091;28;20027;-78
2022/10/22 06:24:35;;;;;;;5.13;2.08;;;;;;;;;;4967092;28;20023;-76
2022/10/22 06:27:00;;;;;;;5.90;1.95;;;;;;;;;;4984168;28;20044;-83
2022/10/22 06:29:28;;;;;;;5.40;1.88;;;;;;;;;;4984266;28;20297;-78
2022/10/22 06:31:54;;;;;;;6.80;2.20;;;;;;;;;;4984169;28;20226;-82
2022/10/22 06:34:19;;;;;;;10.30;2.25;;;;;;;;;;4984241;28;20070;-83
2022/10/22 06:36:45;;;;;;;6.43;2.00;;;;;;;;;;4984197;28;20038;-81
2022/10/22 06:39:15;;;;;;;5.30;2.00;;;;;;;;;;4983615;28;20247;-83
2022/10/22 06:41:41;;;;;;;5.60;2.00;;;;;;;;;;4985076;28;20023;-85
2022/10/22 06:44:09;;;;;;;6.10;2.00;;;;;;;;;;4983701;28;20357;-80
2022/10/22 06:46:34;;;;;;;6.93;1.80;;;;;;;;;;4982836;28;20086;-80
2022/10/22 06:49:04;;;;;;;5.97;2.10;;;;;;;;;;4982812;28;20090;-79
2022/10/22 06:51:30;;;;;;;5.13;2.03;;;;;;;;;;4983783;28;20023;-78
2022/10/22 06:53:56;;;;;;;5.30;1.83;;;;;;;;;;4983552;28;20263;-79
2022/10/22 06:56:24;;;;;;;5.25;2.03;;;;;;;;;;4983503;28;20027;-80
2022/10/22 06:58:51;;;;;;;5.80;2.47;;;;;;;;;;4983695;28;20022;-79
2022/10/22 07:01:18;;;;;;;6.22;2.08;;;;;;;;;;4983728;28;20034;-80
2022/10/22 07:03:43;;;;;;;5.70;2.00;;;;;;;;;;4981342;28;20085;-76
2022/10/22 07:06:11;;;;;;;7.32;2.08;;;;;;;;;;4983576;28;20030;-81
2022/10/22 07:08:38;;;;;;;7.25;2.28;;;;;;;;;;4961264;28;20031;-80
2022/10/22 07:11:18;;;;;;;8.15;2.22;;;;;;;;;;4980502;28;20124;-81
2022/10/22 07:13:45;;;;;;;7.28;2.40;;;;;;;;;;4979264;28;20026;-78
2022/10/22 07:16:11;;;;;;;9.10;2.15;;;;;;;;;;4982464;28;20082;-84
2022/10/22 07:18:37;;;;;;;8.80;2.30;;;;;;;;;;4964943;28;20225;-85
2022/10/22 07:21:04;;;;;;;6.45;2.40;;;;;;;;;;4964471;28;20054;-82
2022/10/22 07:23:30;;;;;;;6.85;2.25;;;;;;;;;;4981995;28;20023;-83
2022/10/22 07:25:55;;;;;;;7.68;2.33;;;;;;;;;;4983045;28;20045;-83
2022/10/22 07:28:21;;;;;;;5.35;2.30;;;;;;;;;;4982412;28;20318;-83
2022/10/22 07:30:47;;;;;;;6.93;2.30;;;;;;;;;;4981928;28;20038;-83
2022/10/22 07:33:13;;;;;;;6.20;2.40;;;;;;;;;;4982252;28;20179;-82
2022/10/22 07:35:39;;;;;;;6.80;2.40;;;;;;;;;;4965153;28;20050;-83
2022/10/22 07:38:06;;;;;;;5.75;2.28;;;;;;;;;;4963960;28;20042;-84
2022/10/22 07:40:32;;;;;;;7.63;2.20;;;;;;;;;;4964355;28;20154;-81
2022/10/22 07:42:58;;;;;;;12.95;2.38;;;;;;;;;;4982107;28;20048;-82
2022/10/22 07:45:24;;;;;;;12.32;2.78;;;;;;;;;;4982331;28;20043;-82
2022/10/22 07:47:49;;;;;;;8.35;2.60;;;;;;;;;;4982576;28;20194;-82
2022/10/22 07:50:15;;;;;;;7.03;2.38;;;;;;;;;;4962588;28;20130;-82
2022/10/22 07:55:02;;;;;;;6.40;2.40;;;;;;;;;;5130310;27;338745;-87
2022/10/22 07:57:27;;;;;;;5.63;2.00;;;;;;;;;;5117860;28;20038;-87
2022/10/22 07:59:55;;;;;;;9.13;2.40;;;;;;;;;;5108444;28;20031;-84
2022/10/22 08:02:20;;;;;;;7.78;2.25;;;;;;;;;;5115033;28;20087;-89
2022/10/22 08:04:46;;;;;;;7.32;2.13;;;;;;;;;;5119635;28;20065;-85
2022/10/22 08:07:11;;;;;;;5.30;1.83;;;;;;;;;;5136758;28;20366;-83
2022/10/22 08:09:36;;;;;;;4.32;1.90;;;;;;;;;;5139796;28;20023;-82
2022/10/22 08:12:02;;;;;;;5.65;1.80;;;;;;;;;;5121520;28;20307;-81
2022/10/22 08:14:28;;;;;;;5.55;1.77;;;;;;;;;;5132071;28;20036;-85
2022/10/22 08:16:53;;;;;;;5.45;1.98;;;;;;;;;;5114436;28;20111;-84
2022/10/22 08:19:20;;;;;;;10.27;1.90;;;;;;;;;;5112920;28;20103;-85
2022/10/22 08:21:46;;;;;;;6.30;1.67;;;;;;;;;;5110637;28;20035;-90
2022/10/22 08:24:12;;;;;;;5.28;1.88;;;;;;;;;;5114937;28;20054;-89
2022/10/22 08:26:37;;;;;;;9.15;2.08;;;;;;;;;;5099554;28;20233;-87
2022/10/22 08:29:03;;;;;;;5.30;1.92;;;;;;;;;;5101456;28;20070;-91
2022/10/22 08:31:28;;;;;;;7.65;2.17;;;;;;;;;;5123964;28;20147;-89
2022/10/22 08:33:54;;;;;;;7.20;2.25;;;;;;;;;;5139429;28;20027;-89
2022/10/22 08:36:19;;;;;;;12.20;2.30;;;;;;;;;;5137087;28;20106;-77
2022/10/22 08:38:45;;;;;;;7.53;2.15;;;;;;;;;;5109052;28;20389;-83
2022/10/22 08:41:17;;;;;;;6.70;1.83;;;;;;;;;;5134773;28;20015;-80
2022/10/22 08:44:19;;;;;;;4.28;1.90;;;;;;;;;;5130709;28;20042;-79
2022/10/22 08:47:15;;;;;;;7.25;2.10;;;;;;;;;;5131598;28;20027;-78
2022/10/22 08:49:41;;;;;;;9.00;2.30;;;;;;;;;;5136614;28;20095;-77
2022/10/22 08:52:13;;;;;;;7.30;2.20;;;;;;;;;;5113321;28;20019;-77
2022/10/22 08:54:47;;;;;;;6.22;2.03;;;;;;;;;;5127263;27;20103;-79
2022/10/22 08:57:33;;;;;;;8.63;2.22;;;;;;;;;;5110716;28;20087;-80
2022/10/22 09:00:04;;;;;;;6.90;2.40;;;;;;;;;;5109146;28;20102;-78
2022/10/22 09:02:47;;;;;;;6.63;2.13;;;;;;;;;;5126874;28;20732;-80
2022/10/22 09:05:19;;;;;;;6.90;2.20;;;;;;;;;;5120666;28;20027;-79
2022/10/22 09:07:48;;;;;;;10.10;2.30;;;;;;;;;;5121312;28;20509;-86
2022/10/22 09:10:16;;;;;;;6.40;2.13;;;;;;;;;;5112925;28;20031;-81
2022/10/22 09:12:41;;;;;;;6.15;2.10;;;;;;;;;;5113267;28;20034;-78
2022/10/22 09:15:12;;;;;;;5.85;2.00;;;;;;;;;;5112760;28;20023;-79
2022/10/22 09:17:54;;;;;;;8.52;2.40;;;;;;;;;;5113129;28;20119;-79
2022/10/22 09:20:37;;;;;;;10.50;2.05;;;;;;;;;;5112818;28;20047;-86
2022/10/22 09:23:13;;;;;;;5.35;1.75;;;;;;;;;;5117488;28;20092;-83
2022/10/22 09:25:39;;;;;;;8.38;2.08;;;;;;;;;;5118696;28;20082;-87
2022/10/22 09:28:04;;;;;;;5.45;1.70;;;;;;;;;;5113566;28;20023;-85
2022/10/22 09:30:34;;;;;;;7.85;2.10;;;;;;;;;;5096849;28;20023;-79
2022/10/22 09:33:00;;;;;;;8.07;2.28;;;;;;;;;;5112844;28;20481;-80
2022/10/22 09:35:25;;;;;;;9.10;2.00;;;;;;;;;;5112449;28;20072;-84
2022/10/22 09:37:54;;;;;;;5.75;1.90;;;;;;;;;;5112620;28;20035;-81
2022/10/22 09:40:21;;;;;;;9.80;2.17;;;;;;;;;;5093765;28;20032;-80
2022/10/22 09:42:47;;;;;;;6.50;2.00;;;;;;;;;;5112858;28;20104;-80
2022/10/22 09:45:20;;;;;;;5.65;1.90;;;;;;;;;;5112547;28;20066;-82
2022/10/22 09:47:46;;;;;;;4.63;1.63;;;;;;;;;;5112703;28;20024;-83
2022/10/22 09:50:20;;;;;;;5.95;2.03;;;;;;;;;;5093867;28;20020;-80
2022/10/22 09:52:57;;;;;;;4.82;1.63;;;;;;;;;;5112464;28;20055;-84
2022/10/22 09:55:24;;;;;;;5.97;1.83;;;;;;;;;;5090452;28;20062;-81
2022/10/22 09:57:59;;;;;;;4.85;1.67;;;;;;;;;;5092018;28;20039;-83
2022/10/22 10:00:27;;;;;;;5.30;1.80;;;;;;;;;;5091818;28;20032;-82
2022/10/22 10:02:55;;;;;;;6.63;2.05;;;;;;;;;;5092018;28;20056;-78
2022/10/22 10:05:27;;;;;;;5.35;1.77;;;;;;;;;;5091654;28;20022;-85
2022/10/22 10:07:52;;;;;;;5.75;1.70;;;;;;;;;;5091801;28;20628;-79
2022/10/22 10:10:25;;;;;;;5.63;1.55;;;;;;;;;;5091354;28;20028;-81
2022/10/22 10:13:05;;;;;;;4.45;1.48;;;;;;;;;;5091738;28;20077;-79
2022/10/22 10:15:44;;;;;;;7.28;1.90;;;;;;;;;;5091547;28;20020;-79
2022/10/22 10:18:25;;;;;;;7.47;1.75;;;;;;;;;;5090878;28;20110;-79
2022/10/22 10:20:50;;;;;;;8.25;1.70;;;;;;;;;;5090033;28;20178;-84
2022/10/22 10:23:50;;;;;;;5.25;1.70;;;;;;;;;;5091941;28;20111;-77
2022/10/22 10:26:27;;;;;;;5.97;1.80;;;;;;;;;;5099113;28;20028;-78
2022/10/22 10:29:12;;;;;;;6.32;2.20;;;;;;;;;;5098450;28;20254;-86
2022/10/22 10:32:02;;;;;;;7.47;1.85;;;;;;;;;;5099549;28;20091;-82
2022/10/22 10:34:55;;;;;;;6.70;1.92;;;;;;;;;;5102737;28;20035;-80
2022/10/22 10:37:31;;;;;;;5.82;1.73;;;;;;;;;;5100623;28;20308;-85
2022/10/22 10:40:16;;;;;;;7.95;2.10;;;;;;;;;;5100488;28;20048;-82
2022/10/22 10:43:15;;;;;;;7.95;1.88;;;;;;;;;;5091053;28;20093;-76
2022/10/22 10:46:08;;;;;;;12.30;2.30;;;;;;;;;;5090946;28;20028;-79
2022/10/22 10:48:58;;;;;;;7.38;1.98;;;;;;;;;;5091518;28;20487;-74
2022/10/22 10:52:05;;;;;;;4.80;1.80;;;;;;;;;;5090615;28;20077;-79
2022/10/22 10:55:05;;;;;;;4.45;1.70;;;;;;;;;;5094612;28;20131;-76
2022/10/22 10:57:52;;;;;;;4.70;1.50;;;;;;;;;;5056647;28;20289;-73
2022/10/22 11:00:19;;;;;;;6.47;1.75;;;;;;;;;;5120747;28;20319;-73
2022/10/22 11:03:04;;;;;;;7.45;1.90;;;;;;;;;;5120662;28;20023;-73
2022/10/22 11:05:36;;;;;;;6.00;1.67;;;;;;;;;;5120763;28;20022;-74
2022/10/22 11:08:10;;;;;;;4.72;1.60;;;;;;;;;;5120820;28;20027;-73
2022/10/22 11:11:05;;;;;;;4.00;1.63;;;;;;;;;;5122335;28;20020;-73
2022/10/22 11:13:35;;;;;;;5.90;1.92;;;;;;;;;;5120222;28;20030;-72
2022/10/22 11:16:23;;;;;;;7.07;1.90;;;;;;;;;;5119308;28;20019;-73
2022/10/22 11:19:13;;;;;;;7.65;2.08;;;;;;;;;;5110746;28;20012;-72
2022/10/22 11:21:44;;;;;;;9.23;2.40;;;;;;;;;;5101400;28;20031;-73
2022/10/22 11:24:15;;;;;;;9.07;2.20;;;;;;;;;;5100618;28;20311;-71
2022/10/22 11:26:59;;;;;;;9.23;2.45;;;;;;;;;;5100389;28;20097;-73
2022/10/22 11:29:31;;;;;;;9.40;2.60;;;;;;;;;;5100680;28;20032;-75
2022/10/22 11:31:57;;;;;;;10.40;2.63;;;;;;;;;;5099690;28;20092;-72
2022/10/22 11:34:33;;;;;;;12.35;2.83;;;;;;;;;;5114182;28;20023;-76
2022/10/22 11:36:58;;;;;;;10.25;2.85;;;;;;;;;;5121333;28;20023;-75
2022/10/22 11:39:46;;;;;;;11.73;3.05;;;;;;;;;;5121704;28;20248;-72
2022/10/22 11:42:20;;;;;;;14.27;3.00;;;;;;;;;;5118325;28;20094;-73
2022/10/22 11:45:03;;;;;;;14.27;3.05;;;;;;;;;;5117636;28;20066;-73
2022/10/22 11:47:50;;;;;;;15.82;3.60;;;;;;;;;;5117928;28;20299;-72
2022/10/22 11:50:23;;;;;;;10.52;3.10;;;;;;;;;;5117135;28;20334;-74
2022/10/22 11:52:54;;;;;;;14.45;2.80;;;;;;;;;;5116570;28;20030;-70
2022/10/22 11:55:47;;;;;;;12.20;3.00;;;;;;;;;;5090523;28;20265;-79
2022/10/22 11:58:28;;;;;;;14.27;3.00;;;;;;;;;;5090748;28;20093;-71
2022/10/22 12:01:08;;;;;;;10.82;2.75;;;;;;;;;;5090114;28;20170;-71
2022/10/22 12:03:33;;;;;;;12.00;2.72;;;;;;;;;;5086695;28;20117;-72
2022/10/22 12:06:11;;;;;;;10.38;3.03;;;;;;;;;;5086324;28;20059;-71
2022/10/22 12:08:47;;;;;;;10.30;2.75;;;;;;;;;;5087408;28;20028;-71
2022/10/22 12:11:18;;;;;;;11.15;3.20;;;;;;;;;;5068736;28;20056;-72
2022/10/22 12:14:02;;;;;;;13.77;3.05;;;;;;;;;;5086743;28;20027;-72
2022/10/22 12:16:31;;;;;;;12.27;2.85;;;;;;;;;;5069168;28;20578;-71
2022/10/22 12:19:03;;;;;;;9.02;2.50;;;;;;;;;;5088506;28;20016;-73
2022/10/22 12:21:32;;;;;;;8.32;2.40;;;;;;;;;;5087304;28;20385;-72
2022/10/22 12:23:59;;;;;;;11.32;2.70;;;;;;;;;;5070268;28;20028;-72
2022/10/22 12:26:27;;;;;;;11.02;2.63;;;;;;;;;;5087974;28;20058;-71
2022/10/22 12:28:57;;;;;;;9.65;2.67;;;;;;;;;;5088471;28;20031;-71
2022/10/22 12:31:22;;;;;;;12.45;2.67;;;;;;;;;;5088037;28;20070;-73
2022/10/22 12:33:55;;;;;;;10.35;2.72;;;;;;;;;;5088036;28;20032;-71
2022/10/22 12:36:20;;;;;;;9.95;2.58;;;;;;;;;;5087989;28;20039;-72
2022/10/22 12:38:46;;;;;;;12.80;2.35;;;;;;;;;;5091808;28;20028;-72
2022/10/22 12:41:12;;;;;;;10.35;2.40;;;;;;;;;;5097064;28;20035;-73
2022/10/22 12:43:40;;;;;;;11.38;2.20;;;;;;;;;;5101584;28;20063;-73
2022/10/22 12:46:13;;;;;;;11.18;2.85;;;;;;;;;;5106071;28;20097;-71
2022/10/22 12:48:44;;;;;;;10.30;2.42;;;;;;;;;;5115667;28;20023;-72
2022/10/22 12:51:16;;;;;;;7.00;2.58;;;;;;;;;;5124866;28;20397;-74
2022/10/22 12:53:46;;;;;;;11.75;2.70;;;;;;;;;;5117256;28;20055;-71
2022/10/22 12:56:30;;;;;;;12.80;2.70;;;;;;;;;;5103672;28;20028;-72
2022/10/22 12:59:21;;;;;;;10.20;2.55;;;;;;;;;;5103321;28;20035;-79
2022/10/22 13:01:48;;;;;;;9.60;2.45;;;;;;;;;;5105350;28;20016;-72
2022/10/22 13:04:25;;;;;;;9.90;2.20;;;;;;;;;;5123529;28;20219;-72
2022/10/22 13:07:13;;;;;;;11.77;2.38;;;;;;;;;;5122801;28;20015;-73
2022/10/22 13:09:40;;;;;;;11.32;2.60;;;;;;;;;;5122909;28;20027;-70
2022/10/22 13:12:09;;;;;;;8.38;2.42;;;;;;;;;;5122401;28;20015;-72
2022/10/22 13:14:37;;;;;;;12.85;2.40;;;;;;;;;;5122765;28;20043;-73
2022/10/22 13:17:17;;;;;;;9.15;2.25;;;;;;;;;;5122629;28;20363;-72
2022/10/22 13:19:48;;;;;;;;;;;;;;;;;;5112498;28;20028;-72
2022/10/22 13:22:25;;;;;;;8.95;1.98;;;;;;;;;;5102402;28;19908;-72
2022/10/22 13:24:51;;;;;;;8.93;2.10;;;;;;;;;;5103045;28;20036;-70
2022/10/22 13:27:16;;;;;;;6.25;2.10;;;;;;;;;;5102800;28;20209;-70
2022/10/22 13:29:43;;;;;;;12.85;1.90;;;;;;;;;;5103121;28;20068;-70
2022/10/22 13:32:30;;;;;;;9.38;1.80;;;;;;;;;;5083034;28;20016;-71
2022/10/22 13:35:00;;;;;;;6.93;1.98;;;;;;;;;;5102786;28;20090;-71
2022/10/22 13:37:27;;;;;;;;;;;;;;;;;;5102413;28;20027;-70
2022/10/22 13:39:52;;;;;;;10.32;1.77;;;;;;;;;;5102699;28;20084;-70
2022/10/22 13:42:18;;;;;;;6.93;1.90;;;;;;;;;;5101494;28;20388;-69
2022/10/22 13:44:43;;;;;;;6.93;1.80;;;;;;;;;;5102010;28;20016;-70
2022/10/22 13:47:25;;;;;;;5.88;1.80;;;;;;;;;;5090644;28;20047;-70
2022/10/22 13:49:53;;;;;;;10.77;1.90;;;;;;;;;;5098364;28;20030;-71
2022/10/22 13:52:33;;;;;;;5.18;1.70;;;;;;;;;;5099377;28;20020;-71
2022/10/22 13:54:58;;;;;;;7.70;1.85;;;;;;;;;;5115993;28;20224;-72
2022/10/22 13:57:24;;;;;;;8.38;1.80;;;;;;;;;;5118810;28;20374;-69
2022/10/22 13:59:49;;;;;;;8.55;1.90;;;;;;;;;;5109400;28;20031;-72
2022/10/22 14:02:16;;;;;;;8.77;1.90;;;;;;;;;;5119418;28;20406;-69
2022/10/22 14:04:41;;;;;;;6.53;1.98;;;;;;;;;;5112592;28;20043;-72
2022/10/22 14:07:15;;;;;;;8.05;1.88;;;;;;;;;;5107426;28;20077;-73
2022/10/22 14:09:41;;;;;;;6.25;2.00;;;;;;;;;;5113222;28;20047;-69
2022/10/22 14:12:14;;;;;;;9.57;2.40;;;;;;;;;;5101410;28;20207;-73
2022/10/22 14:14:39;;;;;;;8.43;2.03;;;;;;;;;;5104519;28;20100;-69
2022/10/22 14:17:11;;;;;;;5.93;1.70;;;;;;;;;;5107098;28;20024;-70
2022/10/22 14:19:36;;;;;;;5.80;1.70;;;;;;;;;;5116062;28;20027;-70
2022/10/22 14:22:02;;;;;;;5.40;1.65;;;;;;;;;;5116094;28;20038;-69
2022/10/22 14:24:27;;;;;;;5.28;1.85;;;;;;;;;;5112617;28;20027;-71
2022/10/22 14:26:53;;;;;;;9.45;1.92;;;;;;;;;;5120879;28;20079;-70
2022/10/22 14:29:18;;;;;;;9.75;1.98;;;;;;;;;;5117079;28;20364;-69
2022/10/22 14:31:43;;;;;;;5.25;2.10;;;;;;;;;;5098351;28;20524;-70
2022/10/22 14:34:11;;;;;;;8.10;1.90;;;;;;;;;;5116535;28;20032;-69
2022/10/22 14:36:36;;;;;;;6.55;1.92;;;;;;;;;;5116969;28;20035;-69
2022/10/22 14:39:02;;;;;;;10.20;2.00;;;;;;;;;;5114516;28;20028;-70
2022/10/22 14:41:28;;;;;;;8.70;2.10;;;;;;;;;;5121537;28;20083;-69
2022/10/22 14:43:54;;;;;;;5.88;1.77;;;;;;;;;;5121261;28;20349;-69
2022/10/22 14:46:20;;;;;;;8.75;2.13;;;;;;;;;;5121061;28;20023;-70
2022/10/22 14:48:46;;;;;;;9.95;2.15;;;;;;;;;;5110754;28;20047;-73
2022/10/22 14:51:17;;;;;;;9.20;2.65;;;;;;;;;;5094628;28;20064;-70
2022/10/22 14:53:43;;;;;;;9.63;2.47;;;;;;;;;;5092902;28;20698;-70
2022/10/22 14:56:14;;;;;;;6.38;2.08;;;;;;;;;;5094899;28;20096;-70
2022/10/22 14:58:40;;;;;;;10.32;2.67;;;;;;;;;;5096262;28;20015;-70
2022/10/22 15:01:06;;;;;;;6.35;2.60;;;;;;;;;;5109381;28;20031;-69
2022/10/22 15:03:32;;;;;;;9.60;2.70;;;;;;;;;;5111254;28;20451;-70